DAL5300 KSEA-PAKT
Flight info
| Callsign | DAL5300 |
|---|---|
| Flight time | N/A |
| Altitude | 34000 |
| Route | BANGR9 PANGL PR ANN |
| Aircraft | MD88/M-SDFGIRWY/S |
Departure
| Time | 2026-05-06 07:55 |
|---|---|
| Airport | Seattle–Tacoma International Airport (KSEA) |
Arrival
| Time | N/A |
|---|---|
| Airport | Ketchikan International Airport (PAKT) |
| Time | Latitude | Longitude | Altitude | Speed | Heading |
|---|---|---|---|---|---|
| 2026-05-06 07:06 | 47.43991 | -122.29883 | 392 ft | 0 kts | 51° |
| 2026-05-06 07:41 | 47.43984 | -122.29896 | 392 ft | 3 kts | 51° |
| 2026-05-06 07:41 | 47.43971 | -122.29920 | 391 ft | 3 kts | 50° |
| 2026-05-06 07:41 | 47.43957 | -122.29942 | 391 ft | 3 kts | 38° |
| 2026-05-06 07:41 | 47.43944 | -122.29953 | 390 ft | 3 kts | 0° |
| 2026-05-06 07:42 | 47.43937 | -122.29951 | 390 ft | 0 kts | 324° |
| 2026-05-06 07:45 | 47.43937 | -122.29952 | 390 ft | 0 kts | 324° |
| 2026-05-06 07:46 | 47.43938 | -122.29952 | 390 ft | 0 kts | 324° |
| 2026-05-06 07:46 | 47.43949 | -122.29965 | 390 ft | 4 kts | 320° |
| 2026-05-06 07:46 | 47.43970 | -122.29993 | 390 ft | 4 kts | 316° |
| 2026-05-06 07:46 | 47.43992 | -122.30026 | 391 ft | 6 kts | 315° |
| 2026-05-06 07:47 | 47.44030 | -122.30084 | 391 ft | 10 kts | 310° |
| 2026-05-06 07:47 | 47.44050 | -122.30178 | 390 ft | 11 kts | 263° |
| 2026-05-06 07:47 | 47.44014 | -122.30284 | 388 ft | 13 kts | 239° |
| 2026-05-06 07:47 | 47.43991 | -122.30420 | 386 ft | 15 kts | 269° |
| 2026-05-06 07:48 | 47.43993 | -122.30563 | 385 ft | 10 kts | 275° |
| 2026-05-06 07:48 | 47.44038 | -122.30633 | 385 ft | 10 kts | 347° |
| 2026-05-06 07:48 | 47.44111 | -122.30636 | 387 ft | 13 kts | 0° |
| 2026-05-06 07:48 | 47.44208 | -122.30635 | 389 ft | 14 kts | 0° |
| 2026-05-06 07:49 | 47.44301 | -122.30634 | 392 ft | 13 kts | 0° |
| 2026-05-06 07:49 | 47.44385 | -122.30633 | 394 ft | 13 kts | 0° |
| 2026-05-06 07:49 | 47.44494 | -122.30632 | 395 ft | 18 kts | 0° |
| 2026-05-06 07:49 | 47.44626 | -122.30631 | 401 ft | 19 kts | 0° |
| 2026-05-06 07:50 | 47.44732 | -122.30630 | 404 ft | 14 kts | 0° |
| 2026-05-06 07:50 | 47.44827 | -122.30629 | 406 ft | 15 kts | 0° |
| 2026-05-06 07:50 | 47.44941 | -122.30628 | 409 ft | 17 kts | 0° |
| 2026-05-06 07:50 | 47.45069 | -122.30627 | 414 ft | 20 kts | 0° |
| 2026-05-06 07:51 | 47.45211 | -122.30626 | 412 ft | 21 kts | 0° |
| 2026-05-06 07:51 | 47.45358 | -122.30624 | 421 ft | 21 kts | 0° |
| 2026-05-06 07:51 | 47.45506 | -122.30623 | 426 ft | 22 kts | 0° |
| 2026-05-06 07:51 | 47.45665 | -122.30621 | 425 ft | 23 kts | 0° |
| 2026-05-06 07:52 | 47.45831 | -122.30620 | 429 ft | 24 kts | 0° |
| 2026-05-06 07:52 | 47.46005 | -122.30618 | 436 ft | 25 kts | 0° |
| 2026-05-06 07:52 | 47.46188 | -122.30616 | 439 ft | 27 kts | 0° |
| 2026-05-06 07:52 | 47.46314 | -122.30615 | 434 ft | 12 kts | 0° |
| 2026-05-06 07:53 | 47.46373 | -122.30665 | 435 ft | 11 kts | 288° |
| 2026-05-06 07:53 | 47.46348 | -122.30766 | 439 ft | 11 kts | 213° |
| 2026-05-06 07:53 | 47.46301 | -122.30778 | 433 ft | 0 kts | 180° |
| 2026-05-06 07:54 | 47.46271 | -122.30778 | 435 ft | 22 kts | 180° |
| 2026-05-06 07:54 | 47.45909 | -122.30780 | 427 ft | 85 kts | 180° |
| 2026-05-06 07:54 | 47.45102 | -122.30790 | 416 ft | 146 kts | 180° |
| 2026-05-06 07:54 | 47.44367 | -122.30801 | 430 ft | 178 kts | 181° |
| 2026-05-06 07:55 | 47.42742 | -122.30794 | 1538 ft | 175 kts | 179° |
| 2026-05-06 07:55 | 47.41918 | -122.30775 | 2121 ft | 174 kts | 180° |
| 2026-05-06 07:55 | 47.40719 | -122.30796 | 2983 ft | 172 kts | 180° |
| 2026-05-06 07:55 | 47.39479 | -122.30808 | 3561 ft | 186 kts | 180° |
| 2026-05-06 07:56 | 47.38147 | -122.30826 | 4117 ft | 196 kts | 182° |
| 2026-05-06 07:56 | 47.36736 | -122.30881 | 4615 ft | 211 kts | 183° |
| 2026-05-06 07:56 | 47.35223 | -122.30970 | 4997 ft | 230 kts | 184° |
| 2026-05-06 07:56 | 47.33604 | -122.31132 | 5612 ft | 234 kts | 195° |
| 2026-05-06 07:57 | 47.32164 | -122.32224 | 6286 ft | 230 kts | 228° |
| 2026-05-06 07:57 | 47.31341 | -122.34235 | 6605 ft | 242 kts | 259° |
| 2026-05-06 07:57 | 47.31166 | -122.36687 | 7246 ft | 242 kts | 268° |
| 2026-05-06 07:57 | 47.31041 | -122.39223 | 7697 ft | 257 kts | 266° |
| 2026-05-06 07:58 | 47.30856 | -122.41934 | 8088 ft | 273 kts | 266° |
| 2026-05-06 07:58 | 47.31012 | -122.44723 | 8751 ft | 273 kts | 290° |
| 2026-05-06 07:58 | 47.31804 | -122.47310 | 9184 ft | 289 kts | 298° |
| 2026-05-06 07:58 | 47.32783 | -122.49994 | 9642 ft | 294 kts | 300° |
| 2026-05-06 07:59 | 47.33848 | -122.52338 | 11051 ft | 268 kts | 314° |
| 2026-05-06 07:59 | 47.35240 | -122.54182 | 11624 ft | 272 kts | 321° |
| 2026-05-06 07:59 | 47.36739 | -122.55954 | 12073 ft | 281 kts | 321° |
| 2026-05-06 07:59 | 47.38292 | -122.57798 | 12427 ft | 293 kts | 321° |
| 2026-05-06 08:00 | 47.39909 | -122.59738 | 12735 ft | 306 kts | 321° |
| 2026-05-06 08:00 | 47.41577 | -122.61772 | 13120 ft | 316 kts | 320° |
| 2026-05-06 08:00 | 47.43274 | -122.63889 | 13664 ft | 320 kts | 319° |
| 2026-05-06 08:00 | 47.44962 | -122.66035 | 14238 ft | 322 kts | 319° |
| 2026-05-06 08:01 | 47.46650 | -122.68209 | 14820 ft | 322 kts | 318° |
| 2026-05-06 08:01 | 47.48339 | -122.70405 | 15349 ft | 324 kts | 318° |
| 2026-05-06 08:01 | 47.50029 | -122.72613 | 15860 ft | 326 kts | 318° |
| 2026-05-06 08:01 | 47.51734 | -122.74846 | 16360 ft | 328 kts | 318° |
| 2026-05-06 08:02 | 47.53446 | -122.77089 | 16871 ft | 330 kts | 317° |
| 2026-05-06 08:02 | 47.55175 | -122.79352 | 17363 ft | 332 kts | 317° |
| 2026-05-06 08:02 | 47.56912 | -122.81626 | 17853 ft | 334 kts | 317° |
| 2026-05-06 08:02 | 47.58659 | -122.83908 | 18363 ft | 336 kts | 317° |
| 2026-05-06 08:03 | 47.60392 | -122.86171 | 18789 ft | 338 kts | 317° |
| 2026-05-06 08:03 | 47.62186 | -122.88512 | 19197 ft | 341 kts | 317° |
| 2026-05-06 08:03 | 47.63974 | -122.90843 | 19585 ft | 344 kts | 317° |
| 2026-05-06 08:03 | 47.65716 | -122.93212 | 20004 ft | 345 kts | 315° |
| 2026-05-06 08:04 | 47.67442 | -122.95750 | 20454 ft | 346 kts | 313° |
| 2026-05-06 08:04 | 47.69117 | -122.98284 | 20848 ft | 349 kts | 313° |
| 2026-05-06 08:04 | 47.70815 | -123.00866 | 21239 ft | 352 kts | 313° |
| 2026-05-06 08:04 | 47.72534 | -123.03466 | 21680 ft | 354 kts | 314° |
| 2026-05-06 08:05 | 47.74266 | -123.06079 | 22080 ft | 356 kts | 313° |
| 2026-05-06 08:05 | 47.76015 | -123.08704 | 22469 ft | 359 kts | 314° |
| 2026-05-06 08:05 | 47.77788 | -123.11331 | 22905 ft | 361 kts | 314° |
| 2026-05-06 08:05 | 47.79571 | -123.13975 | 23295 ft | 363 kts | 314° |
| 2026-05-06 08:06 | 47.81373 | -123.16633 | 23723 ft | 366 kts | 314° |
| 2026-05-06 08:06 | 47.83183 | -123.19313 | 24003 ft | 369 kts | 314° |
| 2026-05-06 08:06 | 47.85005 | -123.22011 | 24413 ft | 369 kts | 314° |
| 2026-05-06 08:06 | 47.86831 | -123.24701 | 24849 ft | 370 kts | 314° |
| 2026-05-06 08:07 | 47.88667 | -123.27428 | 25196 ft | 374 kts | 314° |
| 2026-05-06 08:07 | 47.90501 | -123.30174 | 25574 ft | 376 kts | 314° |
| 2026-05-06 08:07 | 47.92350 | -123.32946 | 25938 ft | 378 kts | 314° |
| 2026-05-06 08:07 | 47.94213 | -123.35725 | 26317 ft | 380 kts | 314° |
| 2026-05-06 08:08 | 47.96083 | -123.38516 | 26708 ft | 381 kts | 313° |
| 2026-05-06 08:08 | 47.97958 | -123.41337 | 27042 ft | 384 kts | 313° |
| 2026-05-06 08:08 | 47.99839 | -123.44180 | 27425 ft | 385 kts | 313° |
| 2026-05-06 08:08 | 48.01727 | -123.47035 | 27791 ft | 387 kts | 313° |
| 2026-05-06 08:09 | 48.03629 | -123.49903 | 28153 ft | 390 kts | 313° |
| 2026-05-06 08:09 | 48.05547 | -123.52782 | 28472 ft | 392 kts | 313° |
| 2026-05-06 08:09 | 48.07478 | -123.55683 | 28819 ft | 394 kts | 314° |
| 2026-05-06 08:09 | 48.09417 | -123.58595 | 29183 ft | 396 kts | 314° |
| 2026-05-06 08:10 | 48.11363 | -123.61520 | 29532 ft | 398 kts | 314° |
| 2026-05-06 08:10 | 48.13297 | -123.64419 | 29839 ft | 400 kts | 313° |
| 2026-05-06 08:10 | 48.15332 | -123.67350 | 30099 ft | 404 kts | 320° |
| 2026-05-06 08:10 | 48.17624 | -123.69812 | 30378 ft | 407 kts | 325° |
| 2026-05-06 08:11 | 48.20024 | -123.72061 | 30681 ft | 408 kts | 326° |
| 2026-05-06 08:11 | 48.22454 | -123.74274 | 30937 ft | 409 kts | 327° |
| 2026-05-06 08:11 | 48.24861 | -123.76467 | 31163 ft | 411 kts | 326° |
| 2026-05-06 08:11 | 48.27304 | -123.78715 | 31401 ft | 413 kts | 326° |
| 2026-05-06 08:12 | 48.29747 | -123.80995 | 31660 ft | 414 kts | 326° |
| 2026-05-06 08:12 | 48.32183 | -123.83300 | 31944 ft | 414 kts | 325° |
| 2026-05-06 08:12 | 48.34620 | -123.85629 | 32191 ft | 416 kts | 325° |
| 2026-05-06 08:12 | 48.37066 | -123.87977 | 32418 ft | 418 kts | 325° |
| 2026-05-06 08:13 | 48.39520 | -123.90340 | 32658 ft | 419 kts | 325° |
| 2026-05-06 08:13 | 48.41980 | -123.92708 | 32920 ft | 420 kts | 325° |
| 2026-05-06 08:13 | 48.44447 | -123.95084 | 33139 ft | 422 kts | 325° |
| 2026-05-06 08:13 | 48.46925 | -123.97470 | 33366 ft | 423 kts | 325° |
| 2026-05-06 08:14 | 48.49407 | -123.99856 | 33601 ft | 425 kts | 325° |
| 2026-05-06 08:14 | 48.51907 | -124.02260 | 33853 ft | 426 kts | 324° |
| 2026-05-06 08:14 | 48.54411 | -124.04680 | 33977 ft | 429 kts | 324° |
| 2026-05-06 08:14 | 48.56922 | -124.07117 | 34029 ft | 429 kts | 324° |
| 2026-05-06 08:15 | 48.61912 | -124.11959 | 34081 ft | 423 kts | 324° |
| 2026-05-06 08:15 | 48.66850 | -124.16721 | 34075 ft | 419 kts | 324° |
| 2026-05-06 08:16 | 48.71752 | -124.21511 | 34091 ft | 421 kts | 324° |
| 2026-05-06 08:16 | 48.76719 | -124.26331 | 34080 ft | 425 kts | 323° |
| 2026-05-06 08:17 | 48.81641 | -124.31156 | 34069 ft | 422 kts | 324° |
| 2026-05-06 08:17 | 48.86572 | -124.35915 | 34067 ft | 418 kts | 324° |
| 2026-05-06 08:18 | 48.91446 | -124.40744 | 34075 ft | 420 kts | 323° |
| 2026-05-06 08:18 | 48.96377 | -124.45620 | 34072 ft | 425 kts | 323° |
| 2026-05-06 08:19 | 49.01353 | -124.50479 | 34079 ft | 424 kts | 323° |
| 2026-05-06 08:19 | 49.06296 | -124.55344 | 34073 ft | 422 kts | 323° |
| 2026-05-06 08:20 | 49.11225 | -124.60220 | 34078 ft | 422 kts | 323° |
| 2026-05-06 08:20 | 49.16173 | -124.65111 | 34074 ft | 424 kts | 323° |
| 2026-05-06 08:21 | 49.21125 | -124.70028 | 34074 ft | 425 kts | 323° |
| 2026-05-06 08:21 | 49.26085 | -124.74977 | 34075 ft | 425 kts | 323° |
| 2026-05-06 08:22 | 49.31034 | -124.79920 | 34082 ft | 425 kts | 322° |
| 2026-05-06 08:22 | 49.35990 | -124.84871 | 34060 ft | 425 kts | 322° |
| 2026-05-06 08:23 | 49.40914 | -124.89827 | 34059 ft | 425 kts | 322° |
| 2026-05-06 08:23 | 49.45871 | -124.94780 | 34045 ft | 424 kts | 322° |
| 2026-05-06 08:24 | 49.50804 | -124.99722 | 34069 ft | 427 kts | 322° |
| 2026-05-06 08:24 | 49.55784 | -125.04736 | 34062 ft | 428 kts | 322° |
| 2026-05-06 08:25 | 49.60749 | -125.09793 | 34064 ft | 428 kts | 322° |
| 2026-05-06 08:25 | 49.65726 | -125.14853 | 34060 ft | 429 kts | 322° |
| 2026-05-06 08:26 | 49.70700 | -125.19907 | 34051 ft | 427 kts | 322° |
| 2026-05-06 08:26 | 49.75661 | -125.24972 | 34067 ft | 428 kts | 322° |
| 2026-05-06 08:27 | 49.80659 | -125.30007 | 34064 ft | 430 kts | 321° |
| 2026-05-06 08:27 | 49.85650 | -125.35123 | 34057 ft | 430 kts | 321° |
| 2026-05-06 08:28 | 49.90620 | -125.40225 | 34070 ft | 428 kts | 321° |
| 2026-05-06 08:28 | 49.95572 | -125.45326 | 34064 ft | 430 kts | 321° |
| 2026-05-06 08:29 | 50.00549 | -125.50485 | 34061 ft | 431 kts | 321° |
| 2026-05-06 08:29 | 50.05541 | -125.55634 | 34065 ft | 431 kts | 321° |
| 2026-05-06 08:30 | 50.10550 | -125.60805 | 34085 ft | 432 kts | 321° |
| 2026-05-06 08:30 | 50.15521 | -125.65951 | 34072 ft | 429 kts | 321° |
| 2026-05-06 08:31 | 50.20459 | -125.71084 | 34078 ft | 426 kts | 321° |
| 2026-05-06 08:31 | 50.25397 | -125.76228 | 34078 ft | 428 kts | 321° |
| 2026-05-06 08:32 | 50.30354 | -125.81436 | 34089 ft | 430 kts | 321° |
| 2026-05-06 08:32 | 50.35348 | -125.86653 | 34115 ft | 431 kts | 320° |
| 2026-05-06 08:33 | 50.40307 | -125.91939 | 34081 ft | 429 kts | 321° |
| 2026-05-06 08:33 | 50.45281 | -125.97094 | 34086 ft | 428 kts | 321° |
| 2026-05-06 08:34 | 50.52701 | -126.04920 | 34107 ft | 430 kts | 320° |
| 2026-05-06 08:35 | 50.57676 | -126.10200 | 34106 ft | 432 kts | 321° |
| 2026-05-06 08:35 | 50.62664 | -126.15493 | 34119 ft | 432 kts | 321° |
| 2026-05-06 08:36 | 50.67630 | -126.20794 | 34116 ft | 430 kts | 321° |
| 2026-05-06 08:36 | 50.72544 | -126.26038 | 34111 ft | 430 kts | 320° |